sensor_id;sensor_type;location;lat;lon;timestamp;P1;durP1;ratioP1;P2;durP2;ratioP2
21038;SDS011;10678;51.002;4.786;2022-09-09T00:00:23;462.85;;;432.08;;
21038;SDS011;10678;51.002;4.786;2022-09-09T00:02:53;472.40;;;440.85;;
21038;SDS011;10678;51.002;4.786;2022-09-09T00:05:41;493.92;;;461.98;;
21038;SDS011;10678;51.002;4.786;2022-09-09T00:08:20;461.70;;;431.30;;
21038;SDS011;10678;51.002;4.786;2022-09-09T00:10:51;453.13;;;422.98;;
21038;SDS011;10678;51.002;4.786;2022-09-09T00:16:41;467.77;;;436.48;;
21038;SDS011;10678;51.002;4.786;2022-09-09T00:21:36;487.88;;;455.27;;
21038;SDS011;10678;51.002;4.786;2022-09-09T00:26:52;445.35;;;416.23;;
21038;SDS011;10678;51.002;4.786;2022-09-09T00:32:12;440.00;;;410.25;;
21038;SDS011;10678;51.002;4.786;2022-09-09T00:34:48;457.10;;;426.67;;
21038;SDS011;10678;51.002;4.786;2022-09-09T00:37:19;436.92;;;408.30;;
21038;SDS011;10678;51.002;4.786;2022-09-09T00:39:46;445.23;;;415.75;;
21038;SDS011;10678;51.002;4.786;2022-09-09T00:42:24;467.90;;;436.55;;
21038;SDS011;10678;51.002;4.786;2022-09-09T00:45:01;468.55;;;437.08;;
21038;SDS011;10678;51.002;4.786;2022-09-09T00:47:51;445.95;;;417.45;;
21038;SDS011;10678;51.002;4.786;2022-09-09T00:53:51;473.02;;;441.27;;
21038;SDS011;10678;51.002;4.786;2022-09-09T00:58:33;468.35;;;438.55;;
21038;SDS011;10678;51.002;4.786;2022-09-09T01:01:07;475.45;;;443.33;;
21038;SDS011;10678;51.002;4.786;2022-09-09T01:03:37;601.42;;;557.55;;
21038;SDS011;10678;51.002;4.786;2022-09-09T01:12:23;499.23;;;466.95;;
21038;SDS011;10678;51.002;4.786;2022-09-09T01:14:53;475.13;;;443.80;;
21038;SDS011;10678;51.002;4.786;2022-09-09T01:17:46;465.67;;;433.35;;
21038;SDS011;10678;51.002;4.786;2022-09-09T01:20:17;453.60;;;422.42;;
21038;SDS011;10678;51.002;4.786;2022-09-09T01:28:10;457.40;;;427.35;;
21038;SDS011;10678;51.002;4.786;2022-09-09T01:30:42;478.85;;;445.95;;
21038;SDS011;10678;51.002;4.786;2022-09-09T01:33:09;448.95;;;419.30;;
21038;SDS011;10678;51.002;4.786;2022-09-09T01:38:13;484.50;;;451.42;;
21038;SDS011;10678;51.002;4.786;2022-09-09T01:40:40;497.80;;;461.52;;
21038;SDS011;10678;51.002;4.786;2022-09-09T01:43:05;471.42;;;437.63;;
21038;SDS011;10678;51.002;4.786;2022-09-09T01:45:32;512.17;;;475.20;;
21038;SDS011;10678;51.002;4.786;2022-09-09T01:47:59;504.05;;;467.67;;
21038;SDS011;10678;51.002;4.786;2022-09-09T01:50:25;511.30;;;475.45;;
21038;SDS011;10678;51.002;4.786;2022-09-09T01:52:52;519.40;;;481.83;;
21038;SDS011;10678;51.002;4.786;2022-09-09T01:55:31;556.08;;;515.63;;
21038;SDS011;10678;51.002;4.786;2022-09-09T02:01:33;510.83;;;474.95;;
21038;SDS011;10678;51.002;4.786;2022-09-09T02:03:56;533.15;;;496.50;;
21038;SDS011;10678;51.002;4.786;2022-09-09T02:06:26;570.08;;;531.05;;
21038;SDS011;10678;51.002;4.786;2022-09-09T02:08:59;632.33;;;588.72;;
21038;SDS011;10678;51.002;4.786;2022-09-09T02:11:29;638.00;;;594.42;;
21038;SDS011;10678;51.002;4.786;2022-09-09T02:13:57;670.05;;;625.25;;
21038;SDS011;10678;51.002;4.786;2022-09-09T02:16:32;685.85;;;639.00;;
21038;SDS011;10678;51.002;4.786;2022-09-09T02:21:33;685.90;;;639.42;;
21038;SDS011;10678;51.002;4.786;2022-09-09T02:24:00;668.72;;;623.25;;
21038;SDS011;10678;51.002;4.786;2022-09-09T02:26:29;693.47;;;645.63;;
21038;SDS011;10678;51.002;4.786;2022-09-09T02:28:59;695.20;;;646.70;;
21038;SDS011;10678;51.002;4.786;2022-09-09T02:31:28;689.92;;;641.10;;
21038;SDS011;10678;51.002;4.786;2022-09-09T02:33:57;701.13;;;650.92;;
21038;SDS011;10678;51.002;4.786;2022-09-09T02:36:26;689.97;;;641.10;;
21038;SDS011;10678;51.002;4.786;2022-09-09T02:38:56;670.40;;;623.08;;
21038;SDS011;10678;51.002;4.786;2022-09-09T02:41:32;683.72;;;635.20;;
21038;SDS011;10678;51.002;4.786;2022-09-09T02:43:59;679.22;;;633.28;;
21038;SDS011;10678;51.002;4.786;2022-09-09T02:54:31;684.75;;;636.53;;
21038;SDS011;10678;51.002;4.786;2022-09-09T02:57:06;675.88;;;629.45;;
21038;SDS011;10678;51.002;4.786;2022-09-09T02:59:36;794.00;;;727.70;;
21038;SDS011;10678;51.002;4.786;2022-09-09T03:02:02;684.58;;;637.17;;
21038;SDS011;10678;51.002;4.786;2022-09-09T03:04:28;693.35;;;644.00;;
21038;SDS011;10678;51.002;4.786;2022-09-09T03:06:56;687.03;;;638.72;;
21038;SDS011;10678;51.002;4.786;2022-09-09T03:09:22;691.47;;;641.53;;
21038;SDS011;10678;51.002;4.786;2022-09-09T03:11:47;704.10;;;653.15;;
21038;SDS011;10678;51.002;4.786;2022-09-09T03:14:14;670.30;;;622.75;;
21038;SDS011;10678;51.002;4.786;2022-09-09T03:16:40;670.10;;;622.47;;
21038;SDS011;10678;51.002;4.786;2022-09-09T03:19:08;681.15;;;632.97;;
21038;SDS011;10678;51.002;4.786;2022-09-09T03:21:33;693.42;;;643.33;;
21038;SDS011;10678;51.002;4.786;2022-09-09T03:23:59;687.08;;;638.22;;
21038;SDS011;10678;51.002;4.786;2022-09-09T03:26:25;673.08;;;624.50;;
21038;SDS011;10678;51.002;4.786;2022-09-09T03:28:50;688.83;;;638.75;;
21038;SDS011;10678;51.002;4.786;2022-09-09T03:31:17;674.92;;;626.42;;
21038;SDS011;10678;51.002;4.786;2022-09-09T03:33:44;629.85;;;584.95;;
21038;SDS011;10678;51.002;4.786;2022-09-09T03:36:09;631.47;;;586.17;;
21038;SDS011;10678;51.002;4.786;2022-09-09T03:38:35;623.22;;;580.05;;
21038;SDS011;10678;51.002;4.786;2022-09-09T03:41:01;634.70;;;590.00;;
21038;SDS011;10678;51.002;4.786;2022-09-09T03:43:27;636.17;;;590.92;;
21038;SDS011;10678;51.002;4.786;2022-09-09T03:45:54;607.95;;;565.58;;
21038;SDS011;10678;51.002;4.786;2022-09-09T03:48:23;616.38;;;573.75;;
21038;SDS011;10678;51.002;4.786;2022-09-09T03:50:51;583.10;;;543.95;;
21038;SDS011;10678;51.002;4.786;2022-09-09T03:53:19;596.33;;;555.10;;
21038;SDS011;10678;51.002;4.786;2022-09-09T03:55:46;615.63;;;572.83;;
21038;SDS011;10678;51.002;4.786;2022-09-09T03:58:14;596.50;;;556.63;;
21038;SDS011;10678;51.002;4.786;2022-09-09T04:00:40;580.08;;;540.45;;
21038;SDS011;10678;51.002;4.786;2022-09-09T04:03:10;598.55;;;557.63;;
21038;SDS011;10678;51.002;4.786;2022-09-09T04:05:38;574.83;;;536.28;;
21038;SDS011;10678;51.002;4.786;2022-09-09T04:08:07;565.17;;;528.40;;
21038;SDS011;10678;51.002;4.786;2022-09-09T04:10:33;581.10;;;542.97;;
21038;SDS011;10678;51.002;4.786;2022-09-09T04:13:01;563.55;;;526.80;;
21038;SDS011;10678;51.002;4.786;2022-09-09T04:15:27;551.22;;;515.95;;
21038;SDS011;10678;51.002;4.786;2022-09-09T04:17:53;583.17;;;546.83;;
21038;SDS011;10678;51.002;4.786;2022-09-09T04:20:18;589.33;;;550.95;;
21038;SDS011;10678;51.002;4.786;2022-09-09T04:22:44;583.08;;;544.92;;
21038;SDS011;10678;51.002;4.786;2022-09-09T04:25:10;573.92;;;537.70;;
21038;SDS011;10678;51.002;4.786;2022-09-09T04:27:35;565.22;;;529.60;;
21038;SDS011;10678;51.002;4.786;2022-09-09T04:30:01;570.95;;;535.33;;
21038;SDS011;10678;51.002;4.786;2022-09-09T04:32:27;568.70;;;532.35;;
21038;SDS011;10678;51.002;4.786;2022-09-09T04:34:52;559.10;;;524.30;;
21038;SDS011;10678;51.002;4.786;2022-09-09T04:37:18;560.88;;;525.53;;
21038;SDS011;10678;51.002;4.786;2022-09-09T04:39:43;576.67;;;539.30;;
21038;SDS011;10678;51.002;4.786;2022-09-09T04:42:10;546.30;;;512.17;;
21038;SDS011;10678;51.002;4.786;2022-09-09T04:44:37;531.22;;;498.70;;
21038;SDS011;10678;51.002;4.786;2022-09-09T04:47:04;531.28;;;497.52;;
21038;SDS011;10678;51.002;4.786;2022-09-09T04:49:30;541.00;;;505.95;;
21038;SDS011;10678;51.002;4.786;2022-09-09T04:51:56;578.72;;;539.60;;
21038;SDS011;10678;51.002;4.786;2022-09-09T04:54:22;590.20;;;550.70;;
21038;SDS011;10678;51.002;4.786;2022-09-09T04:56:49;604.13;;;563.58;;
21038;SDS011;10678;51.002;4.786;2022-09-09T04:59:15;607.92;;;567.17;;
21038;SDS011;10678;51.002;4.786;2022-09-09T05:01:41;603.55;;;564.15;;
21038;SDS011;10678;51.002;4.786;2022-09-09T05:04:07;588.47;;;550.95;;
21038;SDS011;10678;51.002;4.786;2022-09-09T05:06:33;554.22;;;520.08;;
21038;SDS011;10678;51.002;4.786;2022-09-09T05:09:01;570.75;;;535.35;;
21038;SDS011;10678;51.002;4.786;2022-09-09T05:11:27;597.28;;;559.47;;
21038;SDS011;10678;51.002;4.786;2022-09-09T05:13:55;594.58;;;556.10;;
21038;SDS011;10678;51.002;4.786;2022-09-09T05:16:21;591.67;;;554.75;;
21038;SDS011;10678;51.002;4.786;2022-09-09T05:18:47;553.10;;;518.25;;
21038;SDS011;10678;51.002;4.786;2022-09-09T05:21:15;571.78;;;536.80;;
21038;SDS011;10678;51.002;4.786;2022-09-09T05:23:42;583.88;;;547.33;;
21038;SDS011;10678;51.002;4.786;2022-09-09T05:26:12;590.22;;;552.17;;
21038;SDS011;10678;51.002;4.786;2022-09-09T05:28:39;537.58;;;504.42;;
21038;SDS011;10678;51.002;4.786;2022-09-09T05:31:06;577.75;;;541.30;;
21038;SDS011;10678;51.002;4.786;2022-09-09T05:33:33;622.90;;;582.22;;
21038;SDS011;10678;51.002;4.786;2022-09-09T05:36:01;578.78;;;541.72;;
21038;SDS011;10678;51.002;4.786;2022-09-09T05:38:29;552.35;;;518.70;;
21038;SDS011;10678;51.002;4.786;2022-09-09T05:40:55;570.83;;;534.70;;
21038;SDS011;10678;51.002;4.786;2022-09-09T05:43:21;556.13;;;521.10;;
21038;SDS011;10678;51.002;4.786;2022-09-09T05:45:48;551.03;;;516.53;;
21038;SDS011;10678;51.002;4.786;2022-09-09T05:48:34;572.08;;;535.35;;
21038;SDS011;10678;51.002;4.786;2022-09-09T05:51:04;583.25;;;544.90;;
21038;SDS011;10678;51.002;4.786;2022-09-09T05:53:31;589.58;;;549.97;;
21038;SDS011;10678;51.002;4.786;2022-09-09T05:56:09;645.92;;;599.95;;
21038;SDS011;10678;51.002;4.786;2022-09-09T05:58:45;543.10;;;508.88;;
21038;SDS011;10678;51.002;4.786;2022-09-09T06:01:18;569.80;;;532.53;;
21038;SDS011;10678;51.002;4.786;2022-09-09T06:03:45;587.92;;;549.00;;
21038;SDS011;10678;51.002;4.786;2022-09-09T06:06:13;609.92;;;568.47;;
21038;SDS011;10678;51.002;4.786;2022-09-09T06:08:41;602.45;;;563.45;;
21038;SDS011;10678;51.002;4.786;2022-09-09T06:11:13;601.90;;;561.83;;
21038;SDS011;10678;51.002;4.786;2022-09-09T06:13:41;649.25;;;604.67;;
21038;SDS011;10678;51.002;4.786;2022-09-09T06:16:10;654.45;;;609.50;;
21038;SDS011;10678;51.002;4.786;2022-09-09T06:18:37;688.35;;;640.03;;
21038;SDS011;10678;51.002;4.786;2022-09-09T06:21:05;613.47;;;573.80;;
21038;SDS011;10678;51.002;4.786;2022-09-09T06:23:32;671.85;;;625.35;;
21038;SDS011;10678;51.002;4.786;2022-09-09T06:28:27;656.00;;;611.92;;
21038;SDS011;10678;51.002;4.786;2022-09-09T06:30:59;637.78;;;595.53;;
21038;SDS011;10678;51.002;4.786;2022-09-09T06:33:25;634.00;;;591.55;;
21038;SDS011;10678;51.002;4.786;2022-09-09T06:35:53;622.80;;;580.47;;
21038;SDS011;10678;51.002;4.786;2022-09-09T06:38:19;620.10;;;578.03;;
21038;SDS011;10678;51.002;4.786;2022-09-09T06:40:54;668.97;;;623.13;;
21038;SDS011;10678;51.002;4.786;2022-09-09T06:43:21;653.72;;;609.10;;
21038;SDS011;10678;51.002;4.786;2022-09-09T06:48:19;615.13;;;574.47;;
21038;SDS011;10678;51.002;4.786;2022-09-09T06:50:45;551.25;;;515.40;;
21038;SDS011;10678;51.002;4.786;2022-09-09T06:53:11;473.85;;;443.92;;
21038;SDS011;10678;51.002;4.786;2022-09-09T06:55:36;478.73;;;448.50;;
21038;SDS011;10678;51.002;4.786;2022-09-09T06:58:02;564.15;;;527.17;;
21038;SDS011;10678;51.002;4.786;2022-09-09T07:00:33;634.60;;;590.80;;
21038;SDS011;10678;51.002;4.786;2022-09-09T07:02:59;705.22;;;652.67;;
21038;SDS011;10678;51.002;4.786;2022-09-09T07:05:24;706.60;;;656.50;;
21038;SDS011;10678;51.002;4.786;2022-09-09T07:07:51;628.90;;;586.97;;
21038;SDS011;10678;51.002;4.786;2022-09-09T07:10:17;600.45;;;560.67;;
21038;SDS011;10678;51.002;4.786;2022-09-09T07:12:42;560.92;;;524.65;;
21038;SDS011;10678;51.002;4.786;2022-09-09T07:15:08;540.13;;;505.55;;
21038;SDS011;10678;51.002;4.786;2022-09-09T07:17:34;588.67;;;551.28;;
21038;SDS011;10678;51.002;4.786;2022-09-09T07:20:00;498.88;;;467.25;;
21038;SDS011;10678;51.002;4.786;2022-09-09T07:22:27;452.08;;;424.48;;
21038;SDS011;10678;51.002;4.786;2022-09-09T07:24:53;535.78;;;502.35;;
21038;SDS011;10678;51.002;4.786;2022-09-09T07:27:19;524.40;;;490.75;;
21038;SDS011;10678;51.002;4.786;2022-09-09T07:29:44;496.23;;;464.98;;
21038;SDS011;10678;51.002;4.786;2022-09-09T07:32:10;544.72;;;510.52;;
21038;SDS011;10678;51.002;4.786;2022-09-09T07:34:36;501.38;;;470.05;;
21038;SDS011;10678;51.002;4.786;2022-09-09T07:37:01;645.58;;;600.22;;
21038;SDS011;10678;51.002;4.786;2022-09-09T07:39:27;540.28;;;506.25;;
21038;SDS011;10678;51.002;4.786;2022-09-09T07:41:53;565.28;;;528.90;;
21038;SDS011;10678;51.002;4.786;2022-09-09T07:44:23;579.88;;;542.53;;
21038;SDS011;10678;51.002;4.786;2022-09-09T07:46:49;597.28;;;557.47;;
21038;SDS011;10678;51.002;4.786;2022-09-09T07:49:15;570.47;;;533.30;;
21038;SDS011;10678;51.002;4.786;2022-09-09T07:51:44;498.27;;;467.98;;
21038;SDS011;10678;51.002;4.786;2022-09-09T07:54:12;483.90;;;453.98;;
21038;SDS011;10678;51.002;4.786;2022-09-09T07:56:40;479.60;;;449.40;;
21038;SDS011;10678;51.002;4.786;2022-09-09T07:59:06;534.88;;;500.52;;
21038;SDS011;10678;51.002;4.786;2022-09-09T08:01:34;539.67;;;504.70;;
21038;SDS011;10678;51.002;4.786;2022-09-09T08:04:05;590.10;;;552.47;;
21038;SDS011;10678;51.002;4.786;2022-09-09T08:06:35;519.17;;;485.92;;
21038;SDS011;10678;51.002;4.786;2022-09-09T08:09:03;429.45;;;404.05;;
21038;SDS011;10678;51.002;4.786;2022-09-09T08:11:30;533.97;;;500.27;;
21038;SDS011;10678;51.002;4.786;2022-09-09T08:13:58;542.25;;;507.60;;
21038;SDS011;10678;51.002;4.786;2022-09-09T08:16:27;572.65;;;535.35;;
21038;SDS011;10678;51.002;4.786;2022-09-09T08:18:56;602.80;;;562.47;;
21038;SDS011;10678;51.002;4.786;2022-09-09T08:21:26;562.92;;;526.25;;
21038;SDS011;10678;51.002;4.786;2022-09-09T08:23:54;540.25;;;506.40;;
21038;SDS011;10678;51.002;4.786;2022-09-09T08:26:22;504.25;;;472.23;;
21038;SDS011;10678;51.002;4.786;2022-09-09T08:28:50;473.95;;;444.60;;
21038;SDS011;10678;51.002;4.786;2022-09-09T08:31:21;437.67;;;410.05;;
21038;SDS011;10678;51.002;4.786;2022-09-09T08:33:54;465.00;;;435.05;;
21038;SDS011;10678;51.002;4.786;2022-09-09T08:36:22;426.67;;;400.25;;
21038;SDS011;10678;51.002;4.786;2022-09-09T08:38:51;363.05;;;340.67;;
21038;SDS011;10678;51.002;4.786;2022-09-09T08:47:04;398.75;;;374.27;;
21038;SDS011;10678;51.002;4.786;2022-09-09T08:52:22;433.15;;;405.75;;
21038;SDS011;10678;51.002;4.786;2022-09-09T08:54:52;381.05;;;357.38;;
21038;SDS011;10678;51.002;4.786;2022-09-09T08:57:21;380.08;;;355.50;;
21038;SDS011;10678;51.002;4.786;2022-09-09T08:59:52;310.02;;;290.27;;
21038;SDS011;10678;51.002;4.786;2022-09-09T09:02:25;364.80;;;343.10;;
21038;SDS011;10678;51.002;4.786;2022-09-09T09:05:19;319.48;;;300.35;;
21038;SDS011;10678;51.002;4.786;2022-09-09T09:10:48;347.45;;;325.02;;
21038;SDS011;10678;51.002;4.786;2022-09-09T09:13:25;348.27;;;326.60;;
21038;SDS011;10678;51.002;4.786;2022-09-09T09:16:00;405.88;;;380.88;;
21038;SDS011;10678;51.002;4.786;2022-09-09T09:18:38;429.13;;;402.17;;
21038;SDS011;10678;51.002;4.786;2022-09-09T09:23:33;499.02;;;464.63;;
21038;SDS011;10678;51.002;4.786;2022-09-09T09:26:10;530.22;;;494.30;;
21038;SDS011;10678;51.002;4.786;2022-09-09T09:28:36;561.83;;;523.72;;
21038;SDS011;10678;51.002;4.786;2022-09-09T09:31:09;540.10;;;502.90;;
21038;SDS011;10678;51.002;4.786;2022-09-09T09:36:11;545.40;;;508.48;;
21038;SDS011;10678;51.002;4.786;2022-09-09T09:38:40;505.35;;;473.85;;
21038;SDS011;10678;51.002;4.786;2022-09-09T09:41:35;602.47;;;562.80;;
21038;SDS011;10678;51.002;4.786;2022-09-09T09:44:04;614.17;;;572.65;;
21038;SDS011;10678;51.002;4.786;2022-09-09T09:46:30;589.63;;;549.08;;
21038;SDS011;10678;51.002;4.786;2022-09-09T09:48:57;520.45;;;487.63;;
21038;SDS011;10678;51.002;4.786;2022-09-09T09:51:28;550.63;;;513.35;;
21038;SDS011;10678;51.002;4.786;2022-09-09T09:54:03;555.13;;;516.15;;
21038;SDS011;10678;51.002;4.786;2022-09-09T09:56:33;484.35;;;452.98;;
21038;SDS011;10678;51.002;4.786;2022-09-09T09:58:59;482.35;;;448.00;;
21038;SDS011;10678;51.002;4.786;2022-09-09T10:01:26;551.03;;;512.38;;
21038;SDS011;10678;51.002;4.786;2022-09-09T10:03:57;564.75;;;525.35;;
21038;SDS011;10678;51.002;4.786;2022-09-09T10:06:31;552.20;;;512.45;;
21038;SDS011;10678;51.002;4.786;2022-09-09T10:09:02;434.02;;;406.77;;
21038;SDS011;10678;51.002;4.786;2022-09-09T10:11:49;452.30;;;422.55;;
21038;SDS011;10678;51.002;4.786;2022-09-09T10:20:17;557.20;;;518.33;;
21038;SDS011;10678;51.002;4.786;2022-09-09T10:22:55;513.60;;;477.48;;
21038;SDS011;10678;51.002;4.786;2022-09-09T10:25:51;493.77;;;460.10;;
21038;SDS011;10678;51.002;4.786;2022-09-09T10:31:48;499.83;;;465.58;;
21038;SDS011;10678;51.002;4.786;2022-09-09T10:37:11;507.23;;;473.98;;
21038;SDS011;10678;51.002;4.786;2022-09-09T10:39:53;592.60;;;552.08;;
21038;SDS011;10678;51.002;4.786;2022-09-09T10:42:28;560.42;;;522.42;;
21038;SDS011;10678;51.002;4.786;2022-09-09T10:47:40;652.20;;;605.65;;
21038;SDS011;10678;51.002;4.786;2022-09-09T10:55:51;702.97;;;653.38;;
21038;SDS011;10678;51.002;4.786;2022-09-09T11:00:56;741.13;;;683.28;;
21038;SDS011;10678;51.002;4.786;2022-09-09T11:03:32;708.72;;;654.35;;
21038;SDS011;10678;51.002;4.786;2022-09-09T11:06:09;714.78;;;656.50;;
21038;SDS011;10678;51.002;4.786;2022-09-09T11:08:41;546.88;;;506.67;;
21038;SDS011;10678;51.002;4.786;2022-09-09T11:11:16;423.50;;;393.75;;
21038;SDS011;10678;51.002;4.786;2022-09-09T11:16:25;465.98;;;430.27;;
21038;SDS011;10678;51.002;4.786;2022-09-09T11:21:47;452.17;;;418.10;;
21038;SDS011;10678;51.002;4.786;2022-09-09T11:24:19;319.08;;;300.17;;
21038;SDS011;10678;51.002;4.786;2022-09-09T11:26:55;351.10;;;327.48;;
21038;SDS011;10678;51.002;4.786;2022-09-09T11:40:30;515.47;;;474.83;;
21038;SDS011;10678;51.002;4.786;2022-09-09T11:43:05;422.25;;;391.35;;
21038;SDS011;10678;51.002;4.786;2022-09-09T11:45:50;307.13;;;290.15;;
21038;SDS011;10678;51.002;4.786;2022-09-09T11:48:23;269.55;;;255.30;;
21038;SDS011;10678;51.002;4.786;2022-09-09T11:51:08;354.80;;;329.67;;
21038;SDS011;10678;51.002;4.786;2022-09-09T11:53:36;292.83;;;274.92;;
21038;SDS011;10678;51.002;4.786;2022-09-09T11:56:23;264.60;;;249.07;;
21038;SDS011;10678;51.002;4.786;2022-09-09T11:59:26;481.35;;;443.83;;
21038;SDS011;10678;51.002;4.786;2022-09-09T12:07:26;237.10;;;222.98;;
21038;SDS011;10678;51.002;4.786;2022-09-09T12:10:39;318.15;;;297.48;;
21038;SDS011;10678;51.002;4.786;2022-09-09T12:12:53;227.93;;;215.93;;
21038;SDS011;10678;51.002;4.786;2022-09-09T12:15:21;355.42;;;330.58;;
21038;SDS011;10678;51.002;4.786;2022-09-09T12:17:50;417.17;;;385.42;;
21038;SDS011;10678;51.002;4.786;2022-09-09T12:28:45;306.52;;;286.23;;
21038;SDS011;10678;51.002;4.786;2022-09-09T12:36:58;239.30;;;226.02;;
21038;SDS011;10678;51.002;4.786;2022-09-09T12:39:36;269.08;;;252.82;;
21038;SDS011;10678;51.002;4.786;2022-09-09T12:42:15;235.93;;;221.48;;
21038;SDS011;10678;51.002;4.786;2022-09-09T12:44:51;281.40;;;263.27;;
21038;SDS011;10678;51.002;4.786;2022-09-09T12:47:18;184.93;;;175.45;;
21038;SDS011;10678;51.002;4.786;2022-09-09T12:49:47;235.52;;;222.43;;
21038;SDS011;10678;51.002;4.786;2022-09-09T12:54:42;220.90;;;208.23;;
21038;SDS011;10678;51.002;4.786;2022-09-09T12:57:11;488.35;;;450.20;;
21038;SDS011;10678;51.002;4.786;2022-09-09T12:59:39;474.50;;;435.17;;
21038;SDS011;10678;51.002;4.786;2022-09-09T13:02:26;404.08;;;373.77;;
21038;SDS011;10678;51.002;4.786;2022-09-09T13:04:53;202.77;;;192.05;;
21038;SDS011;10678;51.002;4.786;2022-09-09T13:07:19;285.55;;;267.15;;
21038;SDS011;10678;51.002;4.786;2022-09-09T13:09:47;249.68;;;236.00;;
21038;SDS011;10678;51.002;4.786;2022-09-09T13:12:21;313.90;;;292.52;;
21038;SDS011;10678;51.002;4.786;2022-09-09T13:14:51;177.82;;;169.10;;
21038;SDS011;10678;51.002;4.786;2022-09-09T13:17:25;285.55;;;266.52;;
21038;SDS011;10678;51.002;4.786;2022-09-09T13:19:54;251.23;;;236.52;;
21038;SDS011;10678;51.002;4.786;2022-09-09T13:25:00;192.85;;;182.40;;
21038;SDS011;10678;51.002;4.786;2022-09-09T13:27:31;337.92;;;315.85;;
21038;SDS011;10678;51.002;4.786;2022-09-09T13:29:59;304.95;;;284.80;;
21038;SDS011;10678;51.002;4.786;2022-09-09T13:32:25;247.85;;;233.40;;
21038;SDS011;10678;51.002;4.786;2022-09-09T13:34:59;390.05;;;361.75;;
21038;SDS011;10678;51.002;4.786;2022-09-09T13:40:03;204.38;;;193.40;;
21038;SDS011;10678;51.002;4.786;2022-09-09T13:42:31;172.00;;;163.13;;
21038;SDS011;10678;51.002;4.786;2022-09-09T13:45:02;177.80;;;167.63;;
21038;SDS011;10678;51.002;4.786;2022-09-09T13:47:32;197.57;;;187.63;;
21038;SDS011;10678;51.002;4.786;2022-09-09T13:52:48;324.65;;;306.85;;
21038;SDS011;10678;51.002;4.786;2022-09-09T13:55:16;168.77;;;159.40;;
21038;SDS011;10678;51.002;4.786;2022-09-09T14:00:20;149.90;;;142.40;;
21038;SDS011;10678;51.002;4.786;2022-09-09T14:02:47;259.95;;;243.80;;
21038;SDS011;10678;51.002;4.786;2022-09-09T14:05:14;212.85;;;200.32;;
21038;SDS011;10678;51.002;4.786;2022-09-09T14:07:41;258.48;;;242.50;;
21038;SDS011;10678;51.002;4.786;2022-09-09T14:10:08;325.02;;;304.48;;
21038;SDS011;10678;51.002;4.786;2022-09-09T14:12:34;293.88;;;275.58;;
21038;SDS011;10678;51.002;4.786;2022-09-09T14:15:01;194.40;;;183.90;;
21038;SDS011;10678;51.002;4.786;2022-09-09T14:17:27;268.58;;;251.90;;
21038;SDS011;10678;51.002;4.786;2022-09-09T14:19:56;381.25;;;356.10;;
21038;SDS011;10678;51.002;4.786;2022-09-09T14:22:22;213.43;;;201.55;;
21038;SDS011;10678;51.002;4.786;2022-09-09T14:24:48;510.60;;;473.00;;
21038;SDS011;10678;51.002;4.786;2022-09-09T14:27:14;633.60;;;584.13;;
21038;SDS011;10678;51.002;4.786;2022-09-09T14:29:41;465.55;;;432.52;;
21038;SDS011;10678;51.002;4.786;2022-09-09T14:32:08;303.67;;;284.73;;
21038;SDS011;10678;51.002;4.786;2022-09-09T14:34:33;400.83;;;373.27;;
21038;SDS011;10678;51.002;4.786;2022-09-09T14:37:00;585.00;;;539.08;;
21038;SDS011;10678;51.002;4.786;2022-09-09T14:39:25;273.15;;;256.60;;
21038;SDS011;10678;51.002;4.786;2022-09-09T14:41:51;191.85;;;181.38;;
21038;SDS011;10678;51.002;4.786;2022-09-09T14:44:17;140.50;;;133.88;;
21038;SDS011;10678;51.002;4.786;2022-09-09T14:46:43;199.82;;;188.30;;
21038;SDS011;10678;51.002;4.786;2022-09-09T14:49:08;170.60;;;161.60;;
21038;SDS011;10678;51.002;4.786;2022-09-09T14:51:35;162.23;;;153.70;;
21038;SDS011;10678;51.002;4.786;2022-09-09T14:54:01;161.65;;;153.65;;
21038;SDS011;10678;51.002;4.786;2022-09-09T14:56:28;412.23;;;383.67;;
21038;SDS011;10678;51.002;4.786;2022-09-09T14:58:56;425.70;;;395.45;;
21038;SDS011;10678;51.002;4.786;2022-09-09T15:01:23;406.15;;;378.27;;
21038;SDS011;10678;51.002;4.786;2022-09-09T15:03:52;176.15;;;166.98;;
21038;SDS011;10678;51.002;4.786;2022-09-09T15:06:20;193.95;;;183.45;;
21038;SDS011;10678;51.002;4.786;2022-09-09T15:08:47;350.33;;;327.05;;
21038;SDS011;10678;51.002;4.786;2022-09-09T15:11:14;291.08;;;273.48;;
21038;SDS011;10678;51.002;4.786;2022-09-09T15:13:41;265.48;;;250.73;;
21038;SDS011;10678;51.002;4.786;2022-09-09T15:16:12;187.63;;;178.00;;
21038;SDS011;10678;51.002;4.786;2022-09-09T15:18:39;199.35;;;189.25;;
21038;SDS011;10678;51.002;4.786;2022-09-09T15:21:07;213.00;;;200.98;;
21038;SDS011;10678;51.002;4.786;2022-09-09T15:23:44;241.68;;;227.90;;
21038;SDS011;10678;51.002;4.786;2022-09-09T15:26:11;308.05;;;289.85;;
21038;SDS011;10678;51.002;4.786;2022-09-09T15:28:39;452.98;;;421.23;;
21038;SDS011;10678;51.002;4.786;2022-09-09T15:31:06;424.30;;;395.38;;
21038;SDS011;10678;51.002;4.786;2022-09-09T15:33:34;374.48;;;349.98;;
21038;SDS011;10678;51.002;4.786;2022-09-09T15:36:12;360.55;;;337.75;;
21038;SDS011;10678;51.002;4.786;2022-09-09T15:38:38;291.80;;;274.27;;
21038;SDS011;10678;51.002;4.786;2022-09-09T15:41:03;637.95;;;588.85;;
21038;SDS011;10678;51.002;4.786;2022-09-09T15:43:29;392.08;;;366.45;;
21038;SDS011;10678;51.002;4.786;2022-09-09T15:45:57;516.95;;;478.95;;
21038;SDS011;10678;51.002;4.786;2022-09-09T15:48:30;179.18;;;169.27;;
21038;SDS011;10678;51.002;4.786;2022-09-09T15:51:02;319.50;;;300.52;;
21038;SDS011;10678;51.002;4.786;2022-09-09T15:53:29;145.80;;;138.63;;
21038;SDS011;10678;51.002;4.786;2022-09-09T15:55:57;261.05;;;245.25;;
21038;SDS011;10678;51.002;4.786;2022-09-09T15:58:23;152.10;;;144.65;;
21038;SDS011;10678;51.002;4.786;2022-09-09T16:00:48;196.82;;;186.13;;
21038;SDS011;10678;51.002;4.786;2022-09-09T16:03:14;267.13;;;250.68;;
21038;SDS011;10678;51.002;4.786;2022-09-09T16:05:40;162.82;;;154.60;;
21038;SDS011;10678;51.002;4.786;2022-09-09T16:08:06;274.63;;;259.98;;
21038;SDS011;10678;51.002;4.786;2022-09-09T16:10:31;213.15;;;201.98;;
21038;SDS011;10678;51.002;4.786;2022-09-09T16:12:57;299.02;;;282.73;;
21038;SDS011;10678;51.002;4.786;2022-09-09T16:15:23;176.55;;;167.30;;
21038;SDS011;10678;51.002;4.786;2022-09-09T16:17:52;161.30;;;153.35;;
21038;SDS011;10678;51.002;4.786;2022-09-09T16:20:18;173.80;;;164.55;;
21038;SDS011;10678;51.002;4.786;2022-09-09T16:22:45;163.68;;;155.50;;
21038;SDS011;10678;51.002;4.786;2022-09-09T16:25:11;243.25;;;228.45;;
21038;SDS011;10678;51.002;4.786;2022-09-09T16:27:36;341.08;;;318.17;;